Time;durP1;ratioP1;P1;durP2;ratioP2;P2;SDS_P1;SDS_P2;PMS_P1;PMS_P2;Temp;Humidity;BMP_temperature;BMP_pressure;BME280_temperature;BME280_humidity;BME280_pressure;Samples;Min_cycle;Max_cycle;Signal;HPM_P1;HPM_P2
2024/02/06 00:00:03;;;;;;;;;;;;;;;19.33;47.43;100396.13;2068225;28;2156;-66
2024/02/06 00:01:08;;;;;;;;;;;;;;;19.34;47.41;100388.25;2069682;28;1609;-66
2024/02/06 00:02:09;;;;;;;;;;;;;;;19.33;47.40;100395.38;2068512;28;2069;-66
2024/02/06 00:03:11;;;;;;;;;;;;;;;19.33;47.22;100393.25;2067342;28;1977;-66
2024/02/06 00:04:12;;;;;;;;;;;;;;;19.32;47.23;100391.03;2070048;28;2278;-66
2024/02/06 00:05:13;;;;;;;;;;;;;;;19.32;47.37;100379.56;2070605;28;1680;-66
2024/02/06 00:06:15;;;;;;;;;;;;;;;19.32;47.25;100396.78;2066206;28;1570;-67
2024/02/06 00:07:16;;;;;;;;;;;;;;;19.32;47.09;100379.56;2067989;28;2046;-66
2024/02/06 00:08:29;;;;;;;;;;;;;;;19.31;47.23;100390.31;2065032;28;2184;-67
2024/02/06 00:09:31;;;;;;;;;;;;;;;19.31;47.15;100384.56;2068068;28;2301;-67
2024/02/06 00:10:32;;;;;;;;;;;;;;;19.32;47.18;100379.56;2067412;28;2235;-67
2024/02/06 00:11:34;;;;;;;;;;;;;;;19.30;47.12;100377.31;2069723;28;2169;-67
2024/02/06 00:12:35;;;;;;;;;;;;;;;19.32;47.12;100382.44;2065209;28;1624;-67
2024/02/06 00:13:37;;;;;;;;;;;;;;;19.30;47.15;100370.84;2067522;28;2228;-67
2024/02/06 00:14:38;;;;;;;;;;;;;;;19.30;47.03;100377.31;2069749;28;1961;-66
2024/02/06 00:15:40;;;;;;;;;;;;;;;19.31;47.07;100380.94;2068825;28;2263;-66
2024/02/06 00:16:41;;;;;;;;;;;;;;;19.31;47.10;100375.94;2070384;28;1652;-67
2024/02/06 00:17:42;;;;;;;;;;;;;;;19.30;47.20;100365.13;2070162;28;1631;-67
2024/02/06 00:18:44;;;;;;;;;;;;;;;19.30;46.96;100362.25;2069067;28;2046;-66
2024/02/06 00:19:45;;;;;;;;;;;;;;;19.29;47.00;100370.13;2067338;28;2259;-66
2024/02/06 00:20:47;;;;;;;;;;;;;;;19.30;46.91;100362.25;2068809;28;1755;-67
2024/02/06 00:21:48;;;;;;;;;;;;;;;19.29;47.05;100370.13;2065177;28;2061;-67
2024/02/06 00:22:49;;;;;;;;;;;;;;;19.28;47.02;100362.88;2070930;28;1918;-67
2024/02/06 00:23:51;;;;;;;;;;;;;;;19.30;46.90;100370.84;2068402;28;2374;-67
2024/02/06 00:24:52;;;;;;;;;;;;;;;19.29;47.01;100360.75;2066240;28;2341;-67
2024/02/06 00:25:55;;;;;;;;;;;;;;;19.27;46.95;100375.78;2065206;28;1640;-67
2024/02/06 00:26:57;;;;;;;;;;;;;;;19.29;46.97;100369.34;2068452;28;1569;-67
2024/02/06 00:27:59;;;;;;;;;;;;;;;19.28;46.97;100362.88;2068284;28;2028;-66
2024/02/06 00:29:01;;;;;;;;;;;;;;;19.28;46.86;100370.75;2068565;28;2008;-66
2024/02/06 00:30:03;;;;;;;;;;;;;;;19.25;46.92;100364.94;2065445;28;2208;-67
2024/02/06 00:31:04;;;;;;;;;;;;;;;19.25;46.85;100370.66;2070613;28;1668;-66
2024/02/06 00:32:05;;;;;;;;;;;;;;;19.24;46.87;100360.59;2066339;28;2208;-66
2024/02/06 00:33:07;;;;;;;;;;;;;;;19.25;46.89;100367.81;2068033;28;2208;-66
2024/02/06 00:34:09;;;;;;;;;;;;;;;19.24;46.81;100374.94;2068847;28;1641;-66
2024/02/06 00:35:11;;;;;;;;;;;;;;;19.24;46.92;100357.72;2065681;28;1954;-66
2024/02/06 00:36:13;;;;;;;;;;;;;;;19.25;46.85;100362.06;2067081;28;2321;-65
2024/02/06 00:37:17;;;;;;;;;;;;;;;19.24;46.74;100354.84;2068263;28;1712;-66
2024/02/06 00:38:19;;;;;;;;;;;;;;;19.25;46.71;100358.47;2064999;28;2267;-66
2024/02/06 00:39:20;;;;;;;;;;;;;;;19.24;46.73;100363.47;2068905;28;2176;-67
2024/02/06 00:40:22;;;;;;;;;;;;;;;19.24;46.73;100357.72;2069028;28;2195;-66
2024/02/06 00:41:23;;;;;;;;;;;;;;;19.23;46.63;100347.63;2067378;28;1922;-66
2024/02/06 00:42:24;;;;;;;;;;;;;;;19.23;46.62;100344.00;2064205;28;1959;-66
2024/02/06 00:43:26;;;;;;;;;;;;;;;19.24;46.73;100360.59;2069198;28;2011;-66
2024/02/06 00:44:27;;;;;;;;;;;;;;;19.24;46.65;100349.13;2069662;28;1653;-66
2024/02/06 00:45:29;;;;;;;;;;;;;;;19.24;46.54;100346.25;2069914;28;2171;-66
2024/02/06 00:46:30;;;;;;;;;;;;;;;19.23;46.69;100344.75;2069559;28;2094;-66
2024/02/06 00:47:31;;;;;;;;;;;;;;;19.24;46.62;100349.13;2070251;28;1653;-66
2024/02/06 00:48:33;;;;;;;;;;;;;;;19.24;46.67;100346.25;2068084;28;2179;-66
2024/02/06 00:49:35;;;;;;;;;;;;;;;19.22;46.66;100343.28;2069065;28;1712;-66
2024/02/06 00:50:37;;;;;;;;;;;;;;;19.23;46.63;100344.75;2068992;28;2252;-66
2024/02/06 00:51:38;;;;;;;;;;;;;;;19.21;46.58;100344.66;2070301;28;1768;-67
2024/02/06 00:52:40;;;;;;;;;;;;;;;19.23;46.55;100356.22;2067747;28;2371;-66
2024/02/06 00:53:41;;;;;;;;;;;;;;;19.21;46.79;100336.06;2068218;28;2160;-66
2024/02/06 00:54:42;;;;;;;;;;;;;;;19.22;46.63;100337.53;2068456;28;2193;-66
2024/02/06 00:55:44;;;;;;;;;;;;;;;19.21;46.68;100350.41;2069231;28;2239;-67
2024/02/06 00:56:45;;;;;;;;;;;;;;;19.20;46.58;100356.81;2070675;28;2606;-66
2024/02/06 00:57:47;;;;;;;;;;;;;;;19.20;46.63;100346.06;2067418;28;1660;-66
2024/02/06 00:58:48;;;;;;;;;;;;;;;19.20;46.61;100348.94;2069124;28;2097;-66
2024/02/06 00:59:50;;;;;;;;;;;;;;;19.20;46.57;100348.94;2069199;28;1910;-66
2024/02/06 01:00:51;;;;;;;;;;;;;;;19.19;46.55;100347.44;2069685;28;2301;-67
2024/02/06 01:01:53;;;;;;;;;;;;;;;19.19;46.58;100344.56;2067741;28;2253;-66
2024/02/06 01:02:54;;;;;;;;;;;;;;;19.20;46.53;100337.44;2067088;28;1922;-66
2024/02/06 01:03:56;;;;;;;;;;;;;;;19.19;46.47;100338.84;2069593;28;2175;-66
2024/02/06 01:04:57;;;;;;;;;;;;;;;19.19;46.45;100344.56;2065506;28;1914;-66
2024/02/06 01:05:59;;;;;;;;;;;;;;;19.19;46.45;100338.09;2070009;28;2090;-66
2024/02/06 01:07:00;;;;;;;;;;;;;;;19.20;46.36;100351.81;2068565;28;1923;-67
2024/02/06 01:08:02;;;;;;;;;;;;;;;19.20;46.52;100351.81;2068037;28;1742;-66
2024/02/06 01:09:04;;;;;;;;;;;;;;;19.20;46.45;100351.06;2071021;28;1652;-66
2024/02/06 01:10:06;;;;;;;;;;;;;;;19.20;46.31;100351.06;2071206;28;2200;-66
2024/02/06 01:11:07;;;;;;;;;;;;;;;19.19;46.35;100333.09;2070255;28;1890;-66
2024/02/06 01:12:09;;;;;;;;;;;;;;;19.18;46.44;100357.47;2068047;28;2239;-66
2024/02/06 01:13:10;;;;;;;;;;;;;;;19.19;46.38;100344.56;2071202;28;2199;-66
2024/02/06 01:14:11;;;;;;;;;;;;;;;19.18;46.47;100334.50;2069867;28;2140;-66
2024/02/06 01:15:13;;;;;;;;;;;;;;;19.18;46.45;100348.84;2071537;28;2301;-65
2024/02/06 01:16:14;;;;;;;;;;;;;;;19.18;46.47;100360.31;2071072;28;1640;-67
2024/02/06 01:17:16;;;;;;;;;;;;;;;19.17;46.48;100335.91;2070494;28;1609;-67
2024/02/06 01:18:17;;;;;;;;;;;;;;;19.17;46.42;100360.97;2068333;28;2314;-66
2024/02/06 01:19:18;;;;;;;;;;;;;;;19.17;46.43;100352.34;2069833;28;2267;-66
2024/02/06 01:20:20;;;;;;;;;;;;;;;19.18;46.29;100373.94;2071193;28;1685;-66
2024/02/06 01:21:21;;;;;;;;;;;;;;;19.16;46.29;100350.88;2074578;28;2144;-66
2024/02/06 01:22:23;;;;;;;;;;;;;;;19.17;46.37;100358.84;2072240;28;1892;-66
2024/02/06 01:23:24;;;;;;;;;;;;;;;19.17;46.41;100358.09;2072017;28;1954;-66
2024/02/06 01:24:26;;;;;;;;;;;;;;;19.16;46.35;100345.88;2073512;28;1676;-66
2024/02/06 01:25:29;;;;;;;;;;;;;;;19.16;46.43;100351.63;2073049;28;1580;-66
2024/02/06 01:26:31;;;;;;;;;;;;;;;19.16;46.30;100351.63;2071070;28;2269;-66
2024/02/06 01:27:32;;;;;;;;;;;;;;;19.16;46.41;100354.50;2070360;28;2232;-66
2024/02/06 01:28:34;;;;;;;;;;;;;;;19.16;46.42;100357.38;2073617;28;2595;-67
2024/02/06 01:29:36;;;;;;;;;;;;;;;19.16;46.35;100357.38;2068946;28;2544;-66
2024/02/06 01:30:37;;;;;;;;;;;;;;;19.17;46.30;100350.25;2069876;28;2184;-66
2024/02/06 01:31:39;;;;;;;;;;;;;;;19.15;46.31;100358.78;2070922;28;1923;-66
2024/02/06 01:32:40;;;;;;;;;;;;;;;19.16;46.28;100360.22;2072153;28;1988;-67
2024/02/06 01:33:42;;;;;;;;;;;;;;;19.15;46.42;100355.91;2072500;28;1745;-66
2024/02/06 01:34:43;;;;;;;;;;;;;;;19.15;46.41;100352.28;2072846;28;2053;-66
2024/02/06 01:35:45;;;;;;;;;;;;;;;19.15;46.27;100341.56;2069925;28;1931;-66
2024/02/06 01:36:46;;;;;;;;;;;;;;;19.14;46.46;100348.66;2072399;28;1729;-66
2024/02/06 01:37:48;;;;;;;;;;;;;;;19.14;46.29;100350.81;2069849;28;2109;-67
2024/02/06 01:38:49;;;;;;;;;;;;;;;19.15;46.28;100344.41;2071780;28;2261;-66
2024/02/06 01:39:50;;;;;;;;;;;;;;;19.14;46.38;100342.19;2069998;28;2217;-65
2024/02/06 01:40:52;;;;;;;;;;;;;;;19.14;46.33;100331.44;2070823;28;2157;-67
2024/02/06 01:41:53;;;;;;;;;;;;;;;19.14;46.41;100348.66;2072726;28;1793;-67
2024/02/06 01:42:55;;;;;;;;;;;;;;;19.13;46.29;100350.06;2070729;28;2148;-67
2024/02/06 01:43:56;;;;;;;;;;;;;;;19.14;46.28;100347.94;2071280;28;2022;-66
2024/02/06 01:44:58;;;;;;;;;;;;;;;19.14;46.35;100330.72;2071909;28;2256;-66
2024/02/06 01:46:00;;;;;;;;;;;;;;;19.14;46.33;100342.19;2071533;28;2161;-66
2024/02/06 01:47:01;;;;;;;;;;;;;;;19.14;46.29;100348.66;2069893;28;2305;-66
2024/02/06 01:48:03;;;;;;;;;;;;;;;19.15;46.36;100349.41;2074738;28;2297;-66
2024/02/06 01:49:05;;;;;;;;;;;;;;;19.14;46.29;100348.66;2072493;28;2334;-66
2024/02/06 01:50:07;;;;;;;;;;;;;;;19.13;46.38;100350.06;2072658;28;2201;-66
2024/02/06 01:51:08;;;;;;;;;;;;;;;19.15;46.26;100349.41;2070043;28;2307;-66
2024/02/06 01:52:11;;;;;;;;;;;;;;;19.15;46.26;100360.88;2071765;28;2330;-66
2024/02/06 01:53:13;;;;;;;;;;;;;;;19.14;46.23;100348.66;2071821;28;2138;-66
2024/02/06 01:54:15;;;;;;;;;;;;;;;19.14;46.34;100345.78;2072395;28;2200;-67
2024/02/06 01:55:16;;;;;;;;;;;;;;;19.13;46.27;100338.59;2072146;28;1768;-66
2024/02/06 01:56:17;;;;;;;;;;;;;;;19.13;46.34;100344.31;2069784;28;1662;-66
2024/02/06 01:57:19;;;;;;;;;;;;;;;19.11;46.27;100344.25;2071804;28;1998;-66
2024/02/06 01:58:21;;;;;;;;;;;;;;;19.11;46.32;100349.97;2070175;28;2387;-67
2024/02/06 01:59:22;;;;;;;;;;;;;;;19.11;46.26;100341.38;2071945;28;1656;-62
2024/02/06 02:00:24;;;;;;;;;;;;;;;19.11;46.27;100338.50;2068708;28;2157;-66
2024/02/06 02:01:26;;;;;;;;;;;;;;;19.11;46.37;100341.38;2068885;28;2290;-64
2024/02/06 02:02:28;;;;;;;;;;;;;;;19.11;46.33;100341.38;2071223;28;1898;-66
2024/02/06 02:03:31;;;;;;;;;;;;;;;19.11;46.33;100335.63;2069060;28;2120;-66
2024/02/06 02:04:33;;;;;;;;;;;;;;;19.11;46.26;100343.50;2070631;28;1915;-66
2024/02/06 02:05:35;;;;;;;;;;;;;;;19.10;46.33;100342.75;2071600;28;1626;-66
2024/02/06 02:06:37;;;;;;;;;;;;;;;19.11;46.29;100329.16;2072529;28;1617;-66
2024/02/06 02:07:39;;;;;;;;;;;;;;;19.10;46.33;100331.25;2070807;28;1673;-66
2024/02/06 02:08:40;;;;;;;;;;;;;;;19.10;46.28;100331.25;2070418;28;2219;-65
2024/02/06 02:09:42;;;;;;;;;;;;;;;19.10;46.27;100325.53;2073070;28;1697;-66
2024/02/06 02:10:43;;;;;;;;;;;;;;;19.10;46.38;100319.06;2070606;28;2299;-66
2024/02/06 02:11:45;;;;;;;;;;;;;;;19.10;46.28;100319.78;2070415;28;2287;-66
2024/02/06 02:12:47;;;;;;;;;;;;;;;19.09;46.33;100318.31;2069821;28;1696;-66
2024/02/06 02:13:48;;;;;;;;;;;;;;;19.10;46.31;100324.78;2069749;28;1648;-66
2024/02/06 02:14:50;;;;;;;;;;;;;;;19.09;46.34;100318.31;2067898;28;2132;-66
2024/02/06 02:15:52;;;;;;;;;;;;;;;19.09;46.30;100324.06;2067631;28;2195;-66
2024/02/06 02:16:53;;;;;;;;;;;;;;;19.08;46.42;100313.97;2069486;28;2027;-66
2024/02/06 02:17:54;;;;;;;;;;;;;;;19.10;46.30;100319.06;2070161;28;1764;-66
2024/02/06 02:18:58;;;;;;;;;;;;;;;19.09;46.32;100318.31;2066766;28;2444;-66
2024/02/06 02:20:00;;;;;;;;;;;;;;;19.08;46.37;100316.84;2068855;28;1640;-66
2024/02/06 02:21:06;;;;;;;;;;;;;;;19.08;46.36;100319.72;2068520;28;1904;-67
2024/02/06 02:22:07;;;;;;;;;;;;;;;19.09;46.39;100306.09;2069142;28;2007;-67
2024/02/06 02:23:09;;;;;;;;;;;;;;;19.08;46.29;100319.72;2068831;28;2168;-66
2024/02/06 02:24:25;;;;;;;;;;;;;;;19.08;46.39;100304.63;2069846;28;2342;-65
2024/02/06 02:25:27;;;;;;;;;;;;;;;19.08;46.30;100302.50;2069888;28;2490;-66
2024/02/06 02:26:29;;;;;;;;;;;;;;;19.09;46.29;100306.09;2067985;28;1653;-65
2024/02/06 02:27:31;;;;;;;;;;;;;;;19.09;46.32;100303.25;2068556;28;2363;-66
2024/02/06 02:28:32;;;;;;;;;;;;;;;19.09;46.29;100312.56;2068235;28;1640;-66
2024/02/06 02:29:34;;;;;;;;;;;;;;;19.09;46.32;100301.09;2067615;28;2152;-66
2024/02/06 02:30:36;;;;;;;;;;;;;;;19.07;46.42;100298.16;2066054;28;2456;-66
2024/02/06 02:31:39;;;;;;;;;;;;;;;19.07;46.31;100295.28;2068937;28;1617;-66
2024/02/06 02:32:41;;;;;;;;;;;;;;;19.07;46.37;100301.00;2070161;28;1964;-66
2024/02/06 02:33:42;;;;;;;;;;;;;;;19.07;46.45;100297.41;2069877;28;1610;-67
2024/02/06 02:34:47;;;;;;;;;;;;;;;19.05;46.37;100306.66;2067402;28;2180;-66
2024/02/06 02:35:50;;;;;;;;;;;;;;;19.04;46.38;100294.44;2070689;28;1654;-66
2024/02/06 02:36:52;;;;;;;;;;;;;;;19.05;46.44;100298.06;2068341;28;2172;-66
2024/02/06 02:37:53;;;;;;;;;;;;;;;19.04;46.35;100296.59;2068918;28;1907;-66
2024/02/06 02:38:55;;;;;;;;;;;;;;;19.04;46.41;100297.31;2066537;28;2347;-66
2024/02/06 02:39:56;;;;;;;;;;;;;;;19.03;46.41;100295.84;2070416;28;2383;-66
2024/02/06 02:40:57;;;;;;;;;;;;;;;19.03;46.32;100303.69;2068462;28;2276;-66
2024/02/06 02:42:00;;;;;;;;;;;;;;;19.05;46.46;100295.19;2068819;28;2291;-65
2024/02/06 02:43:01;;;;;;;;;;;;;;;19.05;46.40;100289.44;2069441;28;2207;-66
2024/02/06 02:44:03;;;;;;;;;;;;;;;19.07;46.31;100303.16;2067942;28;1985;-66
2024/02/06 02:45:04;;;;;;;;;;;;;;;19.06;46.34;100290.94;2070184;28;2320;-66
2024/02/06 02:46:06;;;;;;;;;;;;;;;19.05;46.35;100295.19;2069444;28;2253;-66
2024/02/06 02:47:08;;;;;;;;;;;;;;;19.04;46.31;100294.44;2068314;28;1664;-66
2024/02/06 02:48:09;;;;;;;;;;;;;;;19.04;46.32;100282.25;2069629;28;1804;-66
2024/02/06 02:49:11;;;;;;;;;;;;;;;19.04;46.43;100293.72;2066267;28;2006;-65
2024/02/06 02:50:12;;;;;;;;;;;;;;;19.04;46.42;100290.84;2069580;28;2193;-66
2024/02/06 02:51:13;;;;;;;;;;;;;;;19.03;46.40;100287.25;2069253;28;2341;-66
2024/02/06 02:52:15;;;;;;;;;;;;;;;19.04;46.39;100279.38;2067818;28;2011;-66
2024/02/06 02:53:16;;;;;;;;;;;;;;;19.03;46.35;100275.78;2067870;28;2204;-66
2024/02/06 02:54:17;;;;;;;;;;;;;;;19.03;46.39;100280.75;2065985;28;1718;-66
2024/02/06 02:55:19;;;;;;;;;;;;;;;19.03;46.42;100272.13;2067152;28;2098;-66
2024/02/06 02:56:21;;;;;;;;;;;;;;;19.03;46.36;100277.88;2070356;28;1661;-66
2024/02/06 02:57:23;;;;;;;;;;;;;;;19.03;46.35;100280.75;2065476;28;1712;-66
2024/02/06 02:58:24;;;;;;;;;;;;;;;19.03;46.32;100275.00;2065894;28;1709;-66
2024/02/06 02:59:25;;;;;;;;;;;;;;;19.03;46.38;100272.13;2066999;28;2140;-66
2024/02/06 03:00:27;;;;;;;;;;;;;;;19.03;46.31;100278.63;2069498;28;2262;-66
2024/02/06 03:01:28;;;;;;;;;;;;;;;19.03;46.38;100286.47;2069502;28;1636;-66
2024/02/06 03:02:29;;;;;;;;;;;;;;;19.03;46.25;100269.28;2067121;28;1656;-66
2024/02/06 03:03:31;;;;;;;;;;;;;;;19.02;46.31;100267.81;2067698;28;2187;-65
2024/02/06 03:04:32;;;;;;;;;;;;;;;19.02;46.24;100267.81;2068214;28;2053;-66
2024/02/06 03:05:34;;;;;;;;;;;;;;;19.02;46.33;100267.81;2067224;28;2070;-66
2024/02/06 03:06:36;;;;;;;;;;;;;;;19.01;46.30;100261.34;2066160;28;1678;-66
2024/02/06 03:07:37;;;;;;;;;;;;;;;19.02;46.36;100265.66;2069963;28;2144;-66
2024/02/06 03:08:39;;;;;;;;;;;;;;;19.02;46.42;100257.06;2070301;28;2188;-66
2024/02/06 03:09:41;;;;;;;;;;;;;;;19.02;46.39;100267.81;2069759;28;1992;-66
2024/02/06 03:10:42;;;;;;;;;;;;;;;19.01;46.37;100254.84;2066897;28;2133;-66
2024/02/06 03:11:43;;;;;;;;;;;;;;;19.02;46.33;100268.53;2070167;28;1792;-66
2024/02/06 03:12:45;;;;;;;;;;;;;;;19.00;46.38;100259.84;2069291;28;1796;-66
2024/02/06 03:13:46;;;;;;;;;;;;;;;19.01;46.37;100257.69;2069868;28;1673;-66
2024/02/06 03:14:48;;;;;;;;;;;;;;;19.00;46.41;100256.97;2070621;28;1652;-66
2024/02/06 03:15:49;;;;;;;;;;;;;;;19.00;46.32;100259.09;2066791;28;2026;-66
2024/02/06 03:16:50;;;;;;;;;;;;;;;19.01;46.37;100263.44;2069607;28;1605;-66
2024/02/06 03:17:54;;;;;;;;;;;;;;;19.00;46.44;100256.97;2071313;28;1915;-66
2024/02/06 03:18:55;;;;;;;;;;;;;;;19.01;46.41;100260.56;2065930;28;1637;-66
2024/02/06 03:19:58;;;;;;;;;;;;;;;19.00;46.29;100259.09;2067109;28;2196;-66
2024/02/06 03:20:59;;;;;;;;;;;;;;;19.00;46.37;100259.84;2076850;28;1971;-66
2024/02/06 03:22:01;;;;;;;;;;;;;;;19.01;46.37;100254.84;2075370;28;2100;-66
2024/02/06 03:23:03;;;;;;;;;;;;;;;19.00;46.41;100259.84;2069965;28;2023;-66
2024/02/06 03:24:05;;;;;;;;;;;;;;;19.00;46.40;100259.84;2068323;28;1940;-66
2024/02/06 03:25:06;;;;;;;;;;;;;;;19.01;46.32;100260.56;2067935;28;2060;-66
2024/02/06 03:26:08;;;;;;;;;;;;;;;19.00;46.34;100250.50;2068738;28;2037;-66
2024/02/06 03:27:09;;;;;;;;;;;;;;;18.99;46.38;100257.66;2070448;28;1776;-66
2024/02/06 03:28:11;;;;;;;;;;;;;;;18.99;46.43;100243.28;2065950;28;2031;-66
2024/02/06 03:29:12;;;;;;;;;;;;;;;18.99;46.38;100251.91;2070167;28;2153;-66
2024/02/06 03:30:14;;;;;;;;;;;;;;;18.99;46.44;100266.25;2068691;28;2089;-66
2024/02/06 03:31:16;;;;;;;;;;;;;;;18.99;46.35;100251.91;2066917;28;1740;-66
2024/02/06 03:32:18;;;;;;;;;;;;;;;18.99;46.34;100246.91;2066692;28;1855;-66
2024/02/06 03:33:19;;;;;;;;;;;;;;;18.99;46.40;100232.56;2066338;28;2039;-66
2024/02/06 03:34:20;;;;;;;;;;;;;;;18.99;46.30;100243.28;2068553;28;2420;-66
2024/02/06 03:35:22;;;;;;;;;;;;;;;18.98;46.32;100245.41;2068683;28;2090;-66
2024/02/06 03:36:24;;;;;;;;;;;;;;;18.99;46.41;100251.91;2070272;28;1899;-66
2024/02/06 03:37:25;;;;;;;;;;;;;;;18.98;46.40;100244.66;2067624;28;2145;-66
2024/02/06 03:38:26;;;;;;;;;;;;;;;18.99;46.29;100240.44;2069147;28;2026;-65
2024/02/06 03:39:28;;;;;;;;;;;;;;;19.01;46.29;100237.63;2067417;28;2054;-66
2024/02/06 03:40:30;;;;;;;;;;;;;;;19.00;46.41;100239.03;2068210;28;2030;-66
2024/02/06 03:41:32;;;;;;;;;;;;;;;19.01;46.39;100237.63;2069067;28;1688;-67
2024/02/06 03:42:33;;;;;;;;;;;;;;;19.00;46.34;100236.88;2068009;28;2022;-66
2024/02/06 03:43:34;;;;;;;;;;;;;;;19.01;46.41;100254.84;2065401;28;2035;-66
2024/02/06 03:44:38;;;;;;;;;;;;;;;19.02;46.26;100233.38;2068753;28;1914;-66
2024/02/06 03:45:40;;;;;;;;;;;;;;;19.03;46.31;100240.56;2068702;28;2018;-66
2024/02/06 03:46:41;;;;;;;;;;;;;;;19.03;46.37;100246.31;2068219;28;2216;-66
2024/02/06 03:47:43;;;;;;;;;;;;;;;19.04;46.38;100236.31;2067231;28;2130;-66
2024/02/06 03:48:44;;;;;;;;;;;;;;;19.06;46.27;100242.16;2069918;28;1603;-66
2024/02/06 03:49:46;;;;;;;;;;;;;;;19.04;46.24;100242.06;2067615;28;1787;-66
2024/02/06 03:50:47;;;;;;;;;;;;;;;19.06;46.26;100242.16;2070624;28;1840;-66
2024/02/06 03:51:48;;;;;;;;;;;;;;;19.07;46.26;100235.00;2067722;28;1672;-66
2024/02/06 03:52:50;;;;;;;;;;;;;;;19.07;46.20;100240.75;2065229;28;2073;-66
2024/02/06 03:53:51;;;;;;;;;;;;;;;19.08;46.19;100239.38;2067630;28;1730;-66
2024/02/06 03:54:53;;;;;;;;;;;;;;;19.10;46.18;100245.19;2065903;28;2050;-66
2024/02/06 03:55:54;;;;;;;;;;;;;;;19.11;46.25;100245.94;2068281;28;1932;-66
2024/02/06 03:56:55;;;;;;;;;;;;;;;19.11;46.17;100240.19;2069351;28;2012;-66
2024/02/06 03:57:57;;;;;;;;;;;;;;;19.12;46.24;100241.66;2070280;28;1887;-66
2024/02/06 03:58:58;;;;;;;;;;;;;;;19.12;46.20;100235.91;2067246;28;1982;-66
2024/02/06 04:00:00;;;;;;;;;;;;;;;19.12;46.18;100244.53;2066452;28;1991;-66
2024/02/06 04:01:01;;;;;;;;;;;;;;;19.11;46.28;100232.31;2067815;28;2249;-66
2024/02/06 04:02:03;;;;;;;;;;;;;;;19.12;46.30;100236.66;2066621;28;1593;-65
2024/02/06 04:03:05;;;;;;;;;;;;;;;19.12;46.36;100228.03;2066960;28;2109;-66
2024/02/06 04:04:07;;;;;;;;;;;;;;;19.12;46.38;100230.19;2065383;28;2015;-66
2024/02/06 04:05:08;;;;;;;;;;;;;;;19.12;46.42;100222.31;2068457;28;2066;-66
2024/02/06 04:06:13;;;;;;;;;;;;;;;19.11;46.28;100229.44;2067634;28;2125;-66
2024/02/06 04:07:15;;;;;;;;;;;;;;;19.10;46.39;100230.81;2067543;28;1661;-66
2024/02/06 04:08:17;;;;;;;;;;;;;;;19.12;46.40;100230.19;2070727;28;2310;-66
2024/02/06 04:09:19;;;;;;;;;;;;;;;19.12;46.46;100230.19;2064495;28;1679;-66
2024/02/06 04:10:20;;;;;;;;;;;;;;;19.12;46.34;100236.66;2067885;28;1998;-66
2024/02/06 04:11:22;;;;;;;;;;;;;;;19.12;46.48;100238.78;2068416;28;2257;-66
2024/02/06 04:12:23;;;;;;;;;;;;;;;19.11;46.46;100229.44;2066054;28;1859;-66
2024/02/06 04:13:24;;;;;;;;;;;;;;;19.13;46.44;100232.41;2069814;28;1812;-66
2024/02/06 04:14:26;;;;;;;;;;;;;;;19.13;46.58;100226.66;2068973;28;2101;-66
2024/02/06 04:15:27;;;;;;;;;;;;;;;19.14;46.61;100233.88;2068829;28;2058;-66
2024/02/06 04:16:29;;;;;;;;;;;;;;;19.13;46.63;100232.41;2067653;28;2156;-68
2024/02/06 04:17:30;;;;;;;;;;;;;;;19.15;46.65;100228.84;2069122;28;2195;-66
2024/02/06 04:18:32;;;;;;;;;;;;;;;19.15;46.53;100218.13;2067855;28;1553;-65
2024/02/06 04:19:34;;;;;;;;;;;;;;;19.15;46.66;100223.88;2068121;28;1926;-65
2024/02/06 04:20:36;;;;;;;;;;;;;;;19.17;46.73;100226.84;2068234;28;2077;-66
2024/02/06 04:21:38;;;;;;;;;;;;;;;19.17;46.61;100214.59;2067823;28;2029;-65
2024/02/06 04:22:39;;;;;;;;;;;;;;;19.18;46.70;100222.56;2068328;28;2203;-65
2024/02/06 04:23:41;;;;;;;;;;;;;;;19.19;46.69;100223.28;2068496;28;2153;-66
2024/02/06 04:24:42;;;;;;;;;;;;;;;19.19;46.66;100232.63;2068938;28;2237;-66
2024/02/06 04:25:43;;;;;;;;;;;;;;;19.19;46.79;100218.28;2064417;28;2090;-67
2024/02/06 04:26:45;;;;;;;;;;;;;;;19.19;46.77;100218.28;2068876;28;2055;-66
2024/02/06 04:27:46;;;;;;;;;;;;;;;19.20;46.84;100216.19;2067934;28;1755;-66
2024/02/06 04:28:48;;;;;;;;;;;;;;;19.20;46.70;100222.66;2070892;28;1775;-66
2024/02/06 04:29:49;;;;;;;;;;;;;;;19.20;46.77;100208.28;2070021;28;2104;-67
2024/02/06 04:30:50;;;;;;;;;;;;;;;19.21;46.79;100232.72;2068516;28;2153;-66
2024/02/06 04:31:52;;;;;;;;;;;;;;;19.20;46.85;100227.66;2068151;28;2082;-66
2024/02/06 04:32:55;;;;;;;;;;;;;;;19.20;46.94;100225.50;2067566;28;1593;-66
2024/02/06 04:33:57;;;;;;;;;;;;;;;19.19;46.87;100226.91;2067695;28;1616;-65
2024/02/06 04:34:58;;;;;;;;;;;;;;;19.19;46.81;100218.28;2068231;28;1884;-67
2024/02/06 04:36:00;;;;;;;;;;;;;;;19.19;46.92;100224.03;2069009;28;1991;-66
2024/02/06 04:37:02;;;;;;;;;;;;;;;19.18;46.99;100222.56;2064883;28;1701;-66
2024/02/06 04:38:05;;;;;;;;;;;;;;;19.19;47.01;100212.53;2068251;28;1882;-67
2024/02/06 04:39:06;;;;;;;;;;;;;;;19.19;46.91;100221.16;2067889;28;2204;-66
2024/02/06 04:40:08;;;;;;;;;;;;;;;19.19;46.98;100217.56;2068777;28;2243;-67
2024/02/06 04:41:09;;;;;;;;;;;;;;;19.19;46.95;100223.28;2069116;28;2003;-66
2024/02/06 04:42:10;;;;;;;;;;;;;;;19.18;46.91;100219.69;2070377;28;1911;-66
2024/02/06 04:43:12;;;;;;;;;;;;;;;19.19;46.98;100220.41;2068610;28;2161;-66
2024/02/06 04:44:13;;;;;;;;;;;;;;;19.19;46.95;100214.69;2067416;28;1793;-66
2024/02/06 04:45:15;;;;;;;;;;;;;;;19.18;46.87;100208.22;2067922;28;2004;-66
2024/02/06 04:46:16;;;;;;;;;;;;;;;19.18;46.94;100216.81;2066071;28;2006;-66
2024/02/06 04:47:17;;;;;;;;;;;;;;;19.18;46.97;100211.09;2065659;28;2125;-67
2024/02/06 04:48:19;;;;;;;;;;;;;;;19.17;46.98;100215.34;2067219;28;2094;-66
2024/02/06 04:49:20;;;;;;;;;;;;;;;19.18;47.10;100211.09;2068138;28;1859;-66
2024/02/06 04:50:22;;;;;;;;;;;;;;;19.19;46.98;100201.06;2066081;28;2122;-67
2024/02/06 04:51:24;;;;;;;;;;;;;;;19.20;47.08;100205.44;2069851;28;2108;-66
2024/02/06 04:52:26;;;;;;;;;;;;;;;19.19;47.01;100198.19;2068880;28;1550;-67
2024/02/06 04:53:28;;;;;;;;;;;;;;;19.19;47.07;100201.06;2067024;28;2467;-66
2024/02/06 04:54:29;;;;;;;;;;;;;;;19.21;47.14;100198.28;2068601;28;2145;-66
2024/02/06 04:55:31;;;;;;;;;;;;;;;19.23;47.04;100206.97;2068094;28;2186;-66
2024/02/06 04:56:32;;;;;;;;;;;;;;;19.24;47.14;100219.19;2065540;28;2176;-66
2024/02/06 04:57:34;;;;;;;;;;;;;;;19.23;47.06;100195.50;2066935;28;2086;-66
2024/02/06 04:58:35;;;;;;;;;;;;;;;19.24;47.01;100191.25;2066745;28;2242;-66
2024/02/06 04:59:36;;;;;;;;;;;;;;;19.23;47.08;100192.63;2068218;28;2227;-66
2024/02/06 05:00:38;;;;;;;;;;;;;;;19.25;47.17;100184.09;2068415;28;2157;-66
2024/02/06 05:01:39;;;;;;;;;;;;;;;19.26;47.14;100187.69;2068461;28;2074;-66
2024/02/06 05:02:41;;;;;;;;;;;;;;;19.24;47.05;100185.50;2068923;28;1618;-66
2024/02/06 05:03:43;;;;;;;;;;;;;;;19.27;47.15;100185.59;2068937;28;2069;-66
2024/02/06 05:04:44;;;;;;;;;;;;;;;19.25;47.08;100164.00;2069388;28;1628;-65
2024/02/06 05:05:45;;;;;;;;;;;;;;;19.25;47.17;100184.09;2069023;28;1991;-66
2024/02/06 05:06:49;;;;;;;;;;;;;;;19.25;47.10;100181.22;2069346;28;1698;-66
2024/02/06 05:07:51;;;;;;;;;;;;;;;19.25;47.11;100186.97;2067353;28;1577;-66
2024/02/06 05:08:52;;;;;;;;;;;;;;;19.25;47.15;100175.50;2069395;28;1616;-66
2024/02/06 05:09:54;;;;;;;;;;;;;;;19.26;47.17;100176.22;2065668;28;2222;-66
2024/02/06 05:10:56;;;;;;;;;;;;;;;19.26;47.19;100173.34;2070252;28;1653;-65
2024/02/06 05:11:57;;;;;;;;;;;;;;;19.25;47.26;100169.75;2065651;28;2187;-66
2024/02/06 05:12:59;;;;;;;;;;;;;;;19.26;47.27;100176.22;2067132;28;1995;-66
2024/02/06 05:14:00;;;;;;;;;;;;;;;19.25;47.30;100175.50;2067620;28;1720;-66
2024/02/06 05:15:02;;;;;;;;;;;;;;;19.23;47.16;100163.91;2068068;28;1996;-65
2024/02/06 05:16:03;;;;;;;;;;;;;;;19.24;47.28;100168.28;2068857;28;1578;-66
2024/02/06 05:17:05;;;;;;;;;;;;;;;19.25;47.31;100163.28;2069671;28;1918;-66
2024/02/06 05:18:06;;;;;;;;;;;;;;;19.25;47.32;100158.25;2067736;28;1784;-66
2024/02/06 05:19:13;;;;;;;;;;;;;;;19.25;47.23;100157.53;2070315;28;2162;-66
2024/02/06 05:20:15;;;;;;;;;;;;;;;19.26;47.23;100161.88;2069382;28;2525;-66
2024/02/06 05:21:16;;;;;;;;;;;;;;;19.25;47.31;100169.00;2069733;28;2045;-66